Time;durP1;ratioP1;P1;durP2;ratioP2;P2;SDS_P1;SDS_P2;PMS_P1;PMS_P2;Temp;Humidity;BMP_temperature;BMP_pressure;BME280_temperature;BME280_humidity;BME280_pressure;Samples;Min_cycle;Max_cycle;Signal;HPM_P1;HPM_P2
2023/10/05 00:04:41;;;;;;;;;;;;;;;28.92;22.71;99037.50;5011368;28;19975;-87
2023/10/05 00:07:07;;;;;;;;;;;;;;;29.04;22.53;99039.59;5003740;28;19922;-87
2023/10/05 00:09:33;;;;;;;;;;;;;;;29.09;22.69;99039.06;5010293;28;19940;-87
2023/10/05 00:12:03;;;;;;;;;;;;;;;28.97;23.23;99033.34;5003451;28;19921;-87
2023/10/05 00:14:29;;;;;;;;;;;;;;;29.04;23.20;99035.97;5009313;28;19922;-87
2023/10/05 00:16:55;;;;;;;;;;;;;;;28.93;23.11;99038.28;5010024;28;19921;-87
2023/10/05 00:19:24;;;;;;;;;;;;;;;29.08;23.30;99037.47;5013880;28;19921;-87
2023/10/05 00:21:51;;;;;;;;;;;;;;;29.13;23.26;99034.09;5009393;28;20369;-87
2023/10/05 00:24:20;;;;;;;;;;;;;;;29.17;23.17;99040.44;5010820;28;19948;-86
2023/10/05 00:26:46;;;;;;;;;;;;;;;29.34;22.97;99039.19;5012290;28;19960;-87
2023/10/05 00:29:25;;;;;;;;;;;;;;;29.53;22.94;99033.81;5011652;28;20403;-87
2023/10/05 00:31:51;;;;;;;;;;;;;;;29.22;22.82;99028.63;5007261;28;19976;-87
2023/10/05 00:36:50;;;;;;;;;;;;;;;29.22;22.74;99020.13;5006336;28;19921;-87
2023/10/05 00:39:20;;;;;;;;;;;;;;;29.18;22.72;99024.28;5017454;28;19963;-87
2023/10/05 00:41:49;;;;;;;;;;;;;;;29.05;23.07;99026.25;5005113;28;20385;-86
2023/10/05 00:44:15;;;;;;;;;;;;;;;29.08;22.92;99020.50;5003456;28;19928;-87
2023/10/05 00:46:48;;;;;;;;;;;;;;;29.12;22.92;99026.88;5012925;28;19918;-87
2023/10/05 00:49:19;;;;;;;;;;;;;;;28.92;23.06;99025.38;5012812;28;20357;-86
2023/10/05 00:52:02;;;;;;;;;;;;;;;28.86;23.13;99021.53;5012716;28;20305;-86
2023/10/05 00:54:32;;;;;;;;;;;;;;;28.91;22.83;99015.31;5011425;28;20032;-87
2023/10/05 00:57:01;;;;;;;;;;;;;;;28.94;22.90;99022.94;5014176;28;20015;-86
2023/10/05 00:59:30;;;;;;;;;;;;;;;29.20;22.39;99022.59;5011652;28;19929;-86
2023/10/05 01:04:28;;;;;;;;;;;;;;;29.32;22.60;99018.25;5011831;28;19921;-86
2023/10/05 01:06:55;;;;;;;;;;;;;;;29.32;22.67;99015.41;5007159;28;20290;-86
2023/10/05 01:09:39;;;;;;;;;;;;;;;29.28;22.60;99017.56;5008926;28;19926;-86
2023/10/05 01:15:05;;;;;;;;;;;;;;;29.21;22.54;99004.41;5003827;28;19922;-86
2023/10/05 01:17:31;;;;;;;;;;;;;;;29.27;22.40;99002.59;5010998;28;20341;-85
2023/10/05 01:20:07;;;;;;;;;;;;;;;29.36;22.42;99004.78;5008866;28;19925;-85
2023/10/05 01:22:35;;;;;;;;;;;;;;;29.20;22.68;98999.19;5011618;28;19979;-86
2023/10/05 01:25:04;;;;;;;;;;;;;;;29.23;22.68;98996.28;5013875;28;19964;-86
2023/10/05 01:27:31;;;;;;;;;;;;;;;29.32;22.53;98999.22;5013666;28;19933;-86
2023/10/05 01:29:57;;;;;;;;;;;;;;;29.40;22.19;98985.69;5012177;28;19957;-85
2023/10/05 01:32:24;;;;;;;;;;;;;;;29.22;22.34;98991.06;5011484;28;20408;-85
2023/10/05 01:34:50;;;;;;;;;;;;;;;29.27;22.85;98984.84;5003518;28;19980;-85
2023/10/05 01:37:23;;;;;;;;;;;;;;;29.23;22.53;98986.97;5013258;28;19925;-84
2023/10/05 01:39:49;;;;;;;;;;;;;;;29.22;22.54;98979.75;4998863;28;20366;-85
2023/10/05 01:42:18;;;;;;;;;;;;;;;29.31;22.74;98980.66;5011162;28;20759;-86
2023/10/05 01:44:47;;;;;;;;;;;;;;;28.91;23.26;98978.56;4999105;28;19968;-86
2023/10/05 01:47:17;;;;;;;;;;;;;;;28.96;23.23;98984.50;5008596;28;19917;-86
2023/10/05 01:49:45;;;;;;;;;;;;;;;29.02;22.92;98971.38;5006190;28;19926;-85
2023/10/05 01:52:11;;;;;;;;;;;;;;;28.94;22.89;98972.81;5010667;28;19928;-86
2023/10/05 01:54:38;;;;;;;;;;;;;;;29.09;23.02;98970.38;5010366;28;20402;-85
2023/10/05 01:57:07;;;;;;;;;;;;;;;29.27;22.54;98965.03;5002207;28;20370;-86
2023/10/05 01:59:34;;;;;;;;;;;;;;;29.32;22.39;98967.31;5011785;28;19940;-86
2023/10/05 02:02:00;;;;;;;;;;;;;;;29.25;22.50;98967.53;5012028;28;20431;-85
2023/10/05 02:04:27;;;;;;;;;;;;;;;29.20;22.66;98963.22;4999088;28;20297;-86
2023/10/05 02:06:53;;;;;;;;;;;;;;;29.04;22.32;98965.28;5015609;28;20389;-86
2023/10/05 02:09:19;;;;;;;;;;;;;;;28.87;22.95;98958.88;5007272;28;19921;-86
2023/10/05 02:11:47;;;;;;;;;;;;;;;28.82;22.98;98956.59;5006506;28;19917;-85
2023/10/05 02:14:16;;;;;;;;;;;;;;;29.04;22.97;98951.94;5006030;28;20448;-86
2023/10/05 02:16:42;;;;;;;;;;;;;;;28.97;22.97;98949.31;5001726;28;19917;-86
2023/10/05 02:19:08;;;;;;;;;;;;;;;29.12;22.60;98949.69;5004798;28;20028;-85
2023/10/05 02:21:37;;;;;;;;;;;;;;;29.21;22.82;98949.88;5012825;28;19926;-85
2023/10/05 02:24:29;;;;;;;;;;;;;;;29.34;22.76;98948.66;4999799;28;19948;-85
2023/10/05 02:29:27;;;;;;;;;;;;;;;29.45;22.55;98942.69;5017537;28;19987;-87
2023/10/05 02:32:05;;;;;;;;;;;;;;;29.43;22.64;98950.81;5003957;28;19976;-86
2023/10/05 02:34:44;;;;;;;;;;;;;;;29.43;22.77;98950.81;5010893;28;19967;-85
2023/10/05 02:37:19;;;;;;;;;;;;;;;29.46;22.75;98951.94;5003691;28;19941;-86
2023/10/05 02:39:45;;;;;;;;;;;;;;;29.26;22.96;98938.00;5008491;28;19921;-85
2023/10/05 02:42:16;;;;;;;;;;;;;;;29.08;23.15;98941.31;5008620;28;19929;-85
2023/10/05 02:44:45;;;;;;;;;;;;;;;28.73;23.31;98936.63;5017202;28;20199;-85
2023/10/05 02:47:13;;;;;;;;;;;;;;;28.29;23.87;98929.72;5017909;28;20012;-86
2023/10/05 02:49:47;;;;;;;;;;;;;;;28.34;24.10;98934.03;5007267;28;19934;-86
2023/10/05 02:52:15;;;;;;;;;;;;;;;28.48;24.06;98928.00;5016338;28;19968;-85
2023/10/05 02:54:42;;;;;;;;;;;;;;;28.71;23.72;98939.13;5018210;28;19917;-85
2023/10/05 02:57:14;;;;;;;;;;;;;;;28.82;23.62;98922.69;5013760;28;19927;-85
2023/10/05 02:59:40;;;;;;;;;;;;;;;28.83;23.79;98929.09;5018815;28;20032;-86
2023/10/05 03:02:08;;;;;;;;;;;;;;;29.15;23.35;98921.31;5018718;28;19924;-85
2023/10/05 03:07:18;;;;;;;;;;;;;;;29.25;22.73;98927.91;5008816;28;19929;-85
2023/10/05 03:09:49;;;;;;;;;;;;;;;28.96;23.27;98919.47;5006637;28;19973;-87
2023/10/05 03:12:15;;;;;;;;;;;;;;;28.93;22.89;98920.34;5019091;28;19947;-88
2023/10/05 03:14:44;;;;;;;;;;;;;;;29.09;23.00;98930.78;5019912;28;19917;-86
2023/10/05 03:17:18;;;;;;;;;;;;;;;29.08;23.05;98929.22;5019702;28;19952;-88
2023/10/05 03:19:44;;;;;;;;;;;;;;;29.28;22.67;98929.84;5019429;28;20266;-87
2023/10/05 03:22:12;;;;;;;;;;;;;;;29.38;22.70;98932.34;5017776;28;20385;-87
2023/10/05 03:24:38;;;;;;;;;;;;;;;29.26;22.96;98924.66;5019868;28;20344;-86
2023/10/05 03:27:07;;;;;;;;;;;;;;;29.41;22.68;98931.47;5018986;28;19925;-87
2023/10/05 03:29:35;;;;;;;;;;;;;;;29.31;22.85;98929.75;5018129;28;20344;-88
2023/10/05 03:34:35;;;;;;;;;;;;;;;29.00;22.89;98931.44;5015503;28;19953;-86
2023/10/05 03:37:17;;;;;;;;;;;;;;;29.06;22.78;98926.81;5014987;28;19925;-86
2023/10/05 03:42:15;;;;;;;;;;;;;;;29.09;22.69;98930.78;5018882;28;19921;-87
2023/10/05 03:44:41;;;;;;;;;;;;;;;29.01;22.82;98918.88;5017482;28;19922;-88
2023/10/05 03:47:07;;;;;;;;;;;;;;;29.03;22.80;98924.09;5008444;28;19928;-88
2023/10/05 03:49:33;;;;;;;;;;;;;;;29.21;22.71;98928.03;5019200;28;19928;-87
2023/10/05 03:52:00;;;;;;;;;;;;;;;29.13;23.21;98920.97;5015252;28;19925;-88
2023/10/05 03:54:26;;;;;;;;;;;;;;;29.04;23.14;98929.31;5020546;28;19924;-88
2023/10/05 03:57:10;;;;;;;;;;;;;;;28.62;23.50;98927.66;5015148;28;19921;-88
2023/10/05 03:59:36;;;;;;;;;;;;;;;28.58;23.77;98930.56;5012691;28;19921;-88
2023/10/05 04:02:04;;;;;;;;;;;;;;;28.97;22.89;98926.69;5007620;28;19922;-88
2023/10/05 04:04:35;;;;;;;;;;;;;;;29.26;22.64;98927.50;5029795;28;19976;-88
2023/10/05 04:07:01;;;;;;;;;;;;;;;28.96;23.12;98927.13;5010963;28;20373;-88
2023/10/05 04:09:30;;;;;;;;;;;;;;;28.77;22.86;98937.34;5011564;28;19921;-87
2023/10/05 04:11:56;;;;;;;;;;;;;;;28.82;22.80;98934.00;5011292;28;19965;-88
2023/10/05 04:14:22;;;;;;;;;;;;;;;28.97;22.64;98937.19;5006658;28;19921;-88
2023/10/05 04:16:51;;;;;;;;;;;;;;;29.09;22.43;98930.78;5014364;28;19936;-87
2023/10/05 04:19:17;;;;;;;;;;;;;;;28.93;22.33;98930.84;5012678;28;20413;-87
2023/10/05 04:21:44;;;;;;;;;;;;;;;28.98;22.21;98939.59;5009189;28;19921;-88
2023/10/05 04:24:14;;;;;;;;;;;;;;;28.91;22.49;98930.50;5012397;28;19960;-87
2023/10/05 04:26:44;;;;;;;;;;;;;;;28.72;22.66;98932.25;5013705;28;20289;-87
2023/10/05 04:29:11;;;;;;;;;;;;;;;28.28;22.75;98933.78;5004890;28;19984;-86
2023/10/05 04:31:37;;;;;;;;;;;;;;;28.04;23.59;98936.00;5005759;28;19925;-87
2023/10/05 04:34:05;;;;;;;;;;;;;;;28.25;22.96;98928.22;5007188;28;19968;-87
2023/10/05 04:36:32;;;;;;;;;;;;;;;28.28;22.91;98921.69;5003536;28;20313;-87
2023/10/05 04:38:58;;;;;;;;;;;;;;;28.12;23.14;98925.31;5009196;28;19922;-87
2023/10/05 04:41:33;;;;;;;;;;;;;;;28.23;23.18;98920.19;5009753;28;20020;-85
2023/10/05 04:44:00;;;;;;;;;;;;;;;28.52;22.85;98925.91;5006147;28;19922;-86
2023/10/05 04:46:28;;;;;;;;;;;;;;;28.48;23.12;98922.38;5005064;28;19922;-86
2023/10/05 04:48:55;;;;;;;;;;;;;;;28.31;23.27;98918.00;5010808;28;19921;-87
2023/10/05 04:51:22;;;;;;;;;;;;;;;28.49;23.13;98924.75;5002055;28;19925;-87
2023/10/05 04:53:53;;;;;;;;;;;;;;;28.70;22.85;98914.94;5009007;28;19934;-88
2023/10/05 04:56:34;;;;;;;;;;;;;;;28.59;22.35;98915.22;5010891;28;19961;-88
2023/10/05 05:07:06;;;;;;;;;;;;;;;28.21;23.05;98922.69;4997878;28;19929;-88
2023/10/05 05:09:38;;;;;;;;;;;;;;;28.38;22.87;98924.22;5014179;28;19999;-88
2023/10/05 05:12:16;;;;;;;;;;;;;;;28.48;22.75;98930.84;5016540;28;20392;-88
2023/10/05 05:14:42;;;;;;;;;;;;;;;28.68;22.69;98934.38;5014994;28;20373;-88
2023/10/05 05:17:11;;;;;;;;;;;;;;;28.81;22.61;98923.09;5011877;28;20007;-88
2023/10/05 05:19:40;;;;;;;;;;;;;;;28.80;22.33;98925.13;5024199;28;20274;-88
2023/10/05 05:22:07;;;;;;;;;;;;;;;28.93;22.53;98919.53;5013154;28;20024;-88
2023/10/05 05:24:33;;;;;;;;;;;;;;;28.95;22.58;98912.22;5005519;28;19925;-88
2023/10/05 05:29:45;;;;;;;;;;;;;;;29.11;22.99;98914.16;5014024;28;19949;-88
2023/10/05 05:32:11;;;;;;;;;;;;;;;29.02;22.83;98912.00;5005439;28;19921;-89
2023/10/05 05:34:38;;;;;;;;;;;;;;;28.84;23.02;98919.41;5006948;28;20395;-89
2023/10/05 05:37:04;;;;;;;;;;;;;;;28.83;23.36;98914.97;5007388;28;20025;-89
2023/10/05 05:39:38;;;;;;;;;;;;;;;28.61;23.49;98909.91;5009332;28;20289;-89
2023/10/05 05:42:07;;;;;;;;;;;;;;;28.45;23.70;98897.84;5005910;28;20251;-89
2023/10/05 05:44:36;;;;;;;;;;;;;;;28.58;23.90;98898.69;5008511;28;19921;-89
2023/10/05 05:47:09;;;;;;;;;;;;;;;28.95;23.45;98880.31;5007062;28;20412;-89
2023/10/05 05:49:36;;;;;;;;;;;;;;;29.00;23.22;98893.91;5000637;28;20397;-89
2023/10/05 05:52:05;;;;;;;;;;;;;;;28.99;23.61;98886.63;5012491;28;19979;-89
2023/10/05 05:54:37;;;;;;;;;;;;;;;28.96;23.67;98891.19;5002922;28;20017;-89
2023/10/05 05:57:07;;;;;;;;;;;;;;;28.81;23.90;98889.19;5009728;28;19952;-90
2023/10/05 05:59:38;;;;;;;;;;;;;;;29.03;23.93;98890.97;5006534;28;19968;-89
2023/10/05 06:02:07;;;;;;;;;;;;;;;29.18;23.54;98891.34;5012368;28;19922;-89
2023/10/05 06:04:33;;;;;;;;;;;;;;;29.39;23.52;98885.84;5007121;28;19922;-88
2023/10/05 06:06:59;;;;;;;;;;;;;;;29.50;23.56;98890.41;5009310;28;19925;-88
2023/10/05 06:09:27;;;;;;;;;;;;;;;29.73;23.54;98890.06;5005338;28;20312;-88
2023/10/05 06:11:53;;;;;;;;;;;;;;;29.47;23.94;98885.63;5013259;28;19953;-88
2023/10/05 06:14:19;;;;;;;;;;;;;;;29.43;24.06;98891.38;5013983;28;19924;-88
2023/10/05 06:16:45;;;;;;;;;;;;;;;29.65;23.85;98888.69;5013906;28;19922;-88
2023/10/05 06:19:11;;;;;;;;;;;;;;;29.75;23.97;98891.19;5014326;28;19913;-88
2023/10/05 06:21:39;;;;;;;;;;;;;;;30.00;24.16;98888.38;5013874;28;20328;-88
2023/10/05 06:24:05;;;;;;;;;;;;;;;30.24;24.09;98879.47;5011423;28;19948;-89
2023/10/05 06:26:31;;;;;;;;;;;;;;;30.49;24.43;98880.22;5020258;28;19928;-88
2023/10/05 06:28:57;;;;;;;;;;;;;;;30.06;24.78;98880.88;5029460;28;19918;-89
2023/10/05 06:31:23;;;;;;;;;;;;;;;29.85;25.34;98881.56;5013978;28;19913;-88
2023/10/05 06:33:51;;;;;;;;;;;;;;;30.01;24.94;98880.66;5013815;28;19925;-89
2023/10/05 06:36:17;;;;;;;;;;;;;;;30.14;24.68;98883.47;5013477;28;20016;-88
2023/10/05 06:38:43;;;;;;;;;;;;;;;30.20;24.83;98882.41;5013928;28;19965;-88
2023/10/05 06:41:09;;;;;;;;;;;;;;;30.65;24.40;98891.38;5017170;28;20288;-89
2023/10/05 06:43:35;;;;;;;;;;;;;;;31.27;23.25;98885.88;5025776;28;19921;-88
2023/10/05 06:46:09;;;;;;;;;;;;;;;31.18;23.14;98886.59;5021301;28;19927;-88
2023/10/05 06:48:36;;;;;;;;;;;;;;;31.27;24.13;98883.03;5013168;28;20281;-88
2023/10/05 06:51:03;;;;;;;;;;;;;;;31.63;22.89;98874.72;5012854;28;19928;-88
2023/10/05 06:53:29;;;;;;;;;;;;;;;31.50;22.88;98870.41;5014121;28;19925;-88
2023/10/05 06:55:56;;;;;;;;;;;;;;;31.51;23.55;98869.91;5013521;28;19917;-88
2023/10/05 06:58:22;;;;;;;;;;;;;;;31.38;24.01;98869.22;5009234;28;19928;-88
2023/10/05 07:00:48;;;;;;;;;;;;;;;31.16;24.04;98868.44;5012495;28;19921;-88
2023/10/05 07:03:14;;;;;;;;;;;;;;;31.37;25.18;98876.94;5013193;28;19925;-88
2023/10/05 07:05:40;;;;;;;;;;;;;;;31.40;24.35;98863.84;5007092;28;19917;-88
2023/10/05 07:08:07;;;;;;;;;;;;;;;31.46;24.58;98867.69;5003453;28;19921;-88
2023/10/05 07:10:33;;;;;;;;;;;;;;;31.37;24.92;98876.13;5010754;28;19921;-88
2023/10/05 07:12:59;;;;;;;;;;;;;;;31.44;25.09;98883.63;5013034;28;19925;-88
2023/10/05 07:15:25;;;;;;;;;;;;;;;31.83;22.67;98874.31;5006559;28;19930;-87
2023/10/05 07:17:51;;;;;;;;;;;;;;;31.78;23.88;98877.78;5012278;28;19921;-88
2023/10/05 07:20:18;;;;;;;;;;;;;;;32.33;23.37;98876.66;5004753;28;20017;-88
2023/10/05 07:22:45;;;;;;;;;;;;;;;32.45;22.62;98874.94;5011119;28;20421;-88
2023/10/05 07:25:12;;;;;;;;;;;;;;;32.73;22.36;98873.72;5005528;28;19977;-88
2023/10/05 07:27:38;;;;;;;;;;;;;;;32.79;23.77;98874.69;5013793;28;19921;-89
2023/10/05 07:30:05;;;;;;;;;;;;;;;32.46;22.58;98874.50;5014029;28;19921;-87
2023/10/05 07:32:34;;;;;;;;;;;;;;;32.38;23.91;98867.53;5000384;28;19933;-88
2023/10/05 07:35:05;;;;;;;;;;;;;;;32.57;22.64;98869.16;5005843;28;19921;-89
2023/10/05 07:37:31;;;;;;;;;;;;;;;32.78;23.73;98875.94;5009830;28;19923;-89
2023/10/05 07:39:58;;;;;;;;;;;;;;;32.85;22.76;98871.97;5006621;28;19928;-88
2023/10/05 07:42:26;;;;;;;;;;;;;;;32.96;23.77;98872.25;4988742;28;19926;-88
2023/10/05 07:44:52;;;;;;;;;;;;;;;33.05;23.44;98873.06;5000808;28;20341;-89
2023/10/05 07:47:19;;;;;;;;;;;;;;;33.22;22.53;98865.78;5006334;28;19922;-89
2023/10/05 07:49:45;;;;;;;;;;;;;;;32.72;22.17;98872.91;5006229;28;19917;-88
2023/10/05 07:52:11;;;;;;;;;;;;;;;32.73;23.35;98870.88;5008524;28;19925;-88
2023/10/05 07:54:38;;;;;;;;;;;;;;;33.02;23.50;98865.50;5003086;28;20005;-88
2023/10/05 07:57:04;;;;;;;;;;;;;;;32.96;22.88;98869.41;5011380;28;20055;-88
2023/10/05 07:59:31;;;;;;;;;;;;;;;32.66;22.78;98871.97;5007120;28;19921;-88
2023/10/05 08:01:57;;;;;;;;;;;;;;;32.30;23.20;98859.78;5009973;28;19922;-88
2023/10/05 08:04:23;;;;;;;;;;;;;;;32.33;23.74;98859.63;5001248;28;19944;-88
2023/10/05 08:06:50;;;;;;;;;;;;;;;32.64;23.78;98866.00;5007316;28;19917;-88
2023/10/05 08:09:20;;;;;;;;;;;;;;;32.20;23.56;98869.53;5001665;28;19922;-88
2023/10/05 08:11:47;;;;;;;;;;;;;;;32.15;23.40;98865.28;5003829;28;20012;-89
2023/10/05 08:14:13;;;;;;;;;;;;;;;32.73;22.64;98854.59;5005893;28;19922;-86
2023/10/05 08:16:39;;;;;;;;;;;;;;;32.89;21.96;98864.84;5001209;28;20425;-89
2023/10/05 08:19:05;;;;;;;;;;;;;;;32.20;22.24;98849.66;4998764;28;19922;-89
2023/10/05 08:21:31;;;;;;;;;;;;;;;32.15;22.47;98868.13;5015692;28;19930;-87
2023/10/05 08:23:58;;;;;;;;;;;;;;;32.07;22.65;98855.47;5010299;28;19969;-86
2023/10/05 08:26:24;;;;;;;;;;;;;;;32.37;22.47;98854.56;5006758;28;19929;-87
2023/10/05 08:28:52;;;;;;;;;;;;;;;32.21;22.42;98859.78;5006374;28;19922;-86
2023/10/05 08:31:23;;;;;;;;;;;;;;;32.24;21.67;98855.97;5006796;28;19918;-85
2023/10/05 08:33:50;;;;;;;;;;;;;;;32.44;22.71;98850.63;5012260;28;20300;-87
2023/10/05 08:36:17;;;;;;;;;;;;;;;32.07;22.81;98858.31;5005957;28;19925;-87
2023/10/05 08:38:47;;;;;;;;;;;;;;;32.13;22.14;98855.63;5008809;28;19968;-87
2023/10/05 08:41:39;;;;;;;;;;;;;;;32.45;22.40;98855.03;5001194;28;20473;-87
2023/10/05 08:44:10;;;;;;;;;;;;;;;32.29;21.79;98849.66;5001386;28;20456;-87
2023/10/05 08:46:43;;;;;;;;;;;;;;;32.39;22.83;98849.22;5012041;28;19926;-88
2023/10/05 08:49:10;;;;;;;;;;;;;;;32.61;21.18;98840.53;4999362;28;19926;-87
2023/10/05 08:51:40;;;;;;;;;;;;;;;33.01;21.96;98846.03;5004195;28;19922;-88
2023/10/05 08:54:09;;;;;;;;;;;;;;;33.34;22.17;98836.31;5004443;28;19926;-87
2023/10/05 08:56:45;;;;;;;;;;;;;;;32.64;21.20;98834.69;5009878;28;19929;-86
2023/10/05 08:59:14;;;;;;;;;;;;;;;32.21;22.31;98837.03;5003645;28;19922;-86
2023/10/05 09:01:52;;;;;;;;;;;;;;;31.72;22.08;98842.72;5006879;28;20004;-89
2023/10/05 09:06:57;;;;;;;;;;;;;;;31.86;24.77;98834.41;5006277;28;19927;-85
2023/10/05 09:10:15;;;;;;;;;;;;;;;32.22;21.30;98832.91;5006874;28;20377;-87
2023/10/05 09:12:34;;;;;;;;;;;;;;;32.20;22.07;98830.56;5002673;28;19922;-87
2023/10/05 09:15:04;;;;;;;;;;;;;;;33.03;20.74;98826.44;5000203;28;19921;-86
2023/10/05 09:17:34;;;;;;;;;;;;;;;33.16;21.70;98818.50;5015280;28;19917;-85
2023/10/05 09:20:21;;;;;;;;;;;;;;;33.23;20.51;98812.47;5012152;28;19935;-86
2023/10/05 09:22:51;;;;;;;;;;;;;;;33.76;21.18;98815.59;5014231;28;19925;-86
2023/10/05 09:25:26;;;;;;;;;;;;;;;33.80;20.83;98810.50;5004097;28;19921;-86
2023/10/05 09:27:53;;;;;;;;;;;;;;;33.55;21.35;98811.75;5008064;28;20065;-86
2023/10/05 09:30:22;;;;;;;;;;;;;;;33.72;19.97;98817.84;5008871;28;19965;-85
2023/10/05 09:32:48;;;;;;;;;;;;;;;33.88;20.13;98811.72;5003143;28;19947;-86
2023/10/05 09:35:26;;;;;;;;;;;;;;;34.13;20.88;98810.47;5008888;28;20449;-86
2023/10/05 09:38:00;;;;;;;;;;;;;;;34.08;20.43;98806.22;5006782;28;19928;-86
2023/10/05 09:40:28;;;;;;;;;;;;;;;33.16;21.53;98790.06;5006520;28;20373;-83
2023/10/05 09:43:00;;;;;;;;;;;;;;;32.88;21.46;98808.44;5005989;28;20024;-85
2023/10/05 09:45:30;;;;;;;;;;;;;;;33.19;20.63;98803.31;5005211;28;20336;-85
2023/10/05 09:47:58;;;;;;;;;;;;;;;32.71;21.01;98810.84;4998603;28;19949;-86
2023/10/05 09:50:26;;;;;;;;;;;;;;;32.98;21.56;98796.53;5009330;28;20324;-87
2023/10/05 09:52:53;;;;;;;;;;;;;;;32.32;21.38;98808.94;5012049;28;19926;-85
2023/10/05 09:55:19;;;;;;;;;;;;;;;31.39;22.52;98799.84;5002393;28;20294;-84
2023/10/05 09:57:46;;;;;;;;;;;;;;;30.79;22.64;98813.50;5007091;28;19925;-86
2023/10/05 10:00:29;;;;;;;;;;;;;;;31.62;22.04;98816.38;5001636;28;19929;-91
2023/10/05 10:02:59;;;;;;;;;;;;;;;32.67;21.18;98816.66;5008853;28;20317;-90
2023/10/05 10:05:30;;;;;;;;;;;;;;;32.56;20.28;98807.03;5002250;28;20471;-88
2023/10/05 10:08:23;;;;;;;;;;;;;;;31.27;25.29;98798.66;5004084;28;19928;-85
2023/10/05 10:11:01;;;;;;;;;;;;;;;31.08;21.83;98797.03;5004598;28;19925;-87
2023/10/05 10:13:28;;;;;;;;;;;;;;;30.08;22.26;98801.88;5011385;28;19928;-87
2023/10/05 10:15:57;;;;;;;;;;;;;;;29.76;22.98;98807.06;5002649;28;20392;-86
2023/10/05 10:18:30;;;;;;;;;;;;;;;30.13;22.78;98794.06;5001476;28;19969;-85
2023/10/05 10:20:57;;;;;;;;;;;;;;;30.84;22.44;98797.94;5003831;28;20024;-87
2023/10/05 10:23:25;;;;;;;;;;;;;;;30.94;22.03;98789.06;5005823;28;19972;-87
2023/10/05 10:26:05;;;;;;;;;;;;;;;30.43;22.30;98787.75;5021687;28;19979;-87
2023/10/05 10:29:15;;;;;;;;;;;;;;;31.26;22.14;98780.06;5007419;28;19921;-85
2023/10/05 10:31:26;;;;;;;;;;;;;;;31.00;22.85;98775.06;5003379;28;19930;-87
2023/10/05 10:33:52;;;;;;;;;;;;;;;30.98;23.06;98769.06;5000883;28;19933;-86
2023/10/05 10:36:18;;;;;;;;;;;;;;;31.90;22.47;98754.72;5005287;28;19984;-85
2023/10/05 10:38:45;;;;;;;;;;;;;;;31.11;21.57;98759.19;5007029;28;19949;-85
2023/10/05 10:41:15;;;;;;;;;;;;;;;31.87;21.43;98764.97;5013480;28;19977;-87
2023/10/05 10:43:49;;;;;;;;;;;;;;;32.77;20.46;98754.88;5003626;28;20285;-86
2023/10/05 10:46:20;;;;;;;;;;;;;;;32.10;21.31;98757.91;5004289;28;20278;-86
2023/10/05 10:49:07;;;;;;;;;;;;;;;31.74;21.06;98747.28;5007554;28;19921;-87
2023/10/05 10:51:36;;;;;;;;;;;;;;;32.45;21.04;98744.97;5004196;28;19932;-87
2023/10/05 10:54:08;;;;;;;;;;;;;;;32.41;20.96;98746.38;5007687;28;20403;-87
2023/10/05 10:56:42;;;;;;;;;;;;;;;31.80;21.49;98745.41;5002671;28;19983;-87
2023/10/05 10:59:19;;;;;;;;;;;;;;;32.74;20.96;98741.63;5009065;28;20370;-86
2023/10/05 11:01:52;;;;;;;;;;;;;;;33.69;19.26;98736.97;5008643;28;20289;-87
2023/10/05 11:04:31;;;;;;;;;;;;;;;33.81;19.64;98732.31;5009351;28;19925;-87
2023/10/05 11:07:17;;;;;;;;;;;;;;;33.53;19.98;98737.41;5012163;28;19956;-86
2023/10/05 11:09:52;;;;;;;;;;;;;;;33.35;20.31;98726.84;5012317;28;20365;-87
2023/10/05 11:12:21;;;;;;;;;;;;;;;33.74;19.45;98732.66;5009615;28;20378;-88
2023/10/05 11:14:47;;;;;;;;;;;;;;;33.60;19.21;98727.69;5010357;28;19925;-87
2023/10/05 11:17:23;;;;;;;;;;;;;;;33.09;20.33;98716.41;5012302;28;19922;-87
2023/10/05 11:19:50;;;;;;;;;;;;;;;33.33;19.40;98717.22;5014606;28;19928;-87
2023/10/05 11:22:23;;;;;;;;;;;;;;;33.18;19.83;98716.34;5010413;28;20361;-86
2023/10/05 11:25:14;;;;;;;;;;;;;;;33.92;19.95;98712.59;5007198;28;19926;-88
2023/10/05 11:27:48;;;;;;;;;;;;;;;33.93;22.33;98708.47;5011075;28;19979;-86
2023/10/05 11:30:21;;;;;;;;;;;;;;;34.38;19.05;98716.63;5005896;28;19932;-87
2023/10/05 11:32:54;;;;;;;;;;;;;;;34.61;19.23;98718.66;5013611;28;19925;-87
2023/10/05 11:35:28;;;;;;;;;;;;;;;33.87;18.84;98710.41;5001121;28;19922;-86
2023/10/05 11:38:05;;;;;;;;;;;;;;;34.38;18.89;98716.63;5014146;28;19930;-87
2023/10/05 11:40:34;;;;;;;;;;;;;;;34.90;19.23;98699.94;5010374;28;19922;-88
2023/10/05 11:43:06;;;;;;;;;;;;;;;34.56;18.51;98696.53;5008227;28;20276;-85
2023/10/05 11:45:33;;;;;;;;;;;;;;;34.31;19.05;98699.16;5007523;28;20271;-87
2023/10/05 11:48:11;;;;;;;;;;;;;;;34.84;18.53;98693.38;5010667;28;19941;-87
2023/10/05 11:50:37;;;;;;;;;;;;;;;35.06;18.55;98690.88;5031906;28;20442;-88
2023/10/05 11:53:11;;;;;;;;;;;;;;;34.44;18.84;98691.88;5005146;28;19948;-87
2023/10/05 11:55:39;;;;;;;;;;;;;;;34.40;19.49;98696.22;5009559;28;20374;-87
2023/10/05 11:58:08;;;;;;;;;;;;;;;34.67;19.02;98693.09;4999595;28;19926;-85
2023/10/05 12:00:35;;;;;;;;;;;;;;;34.89;18.71;98687.75;5005025;28;19941;-86
2023/10/05 12:03:01;;;;;;;;;;;;;;;34.61;18.61;98684.41;5011918;28;19917;-87
2023/10/05 12:05:30;;;;;;;;;;;;;;;34.55;18.62;98679.91;5005346;28;20325;-87
2023/10/05 12:07:59;;;;;;;;;;;;;;;35.10;18.76;98680.84;5004969;28;20112;-87
2023/10/05 12:10:25;;;;;;;;;;;;;;;34.70;18.78;98681.47;5000984;28;19924;-88
2023/10/05 12:12:51;;;;;;;;;;;;;;;35.03;18.84;98677.63;5009308;28;19976;-88
2023/10/05 12:15:19;;;;;;;;;;;;;;;34.88;18.40;98677.63;5011120;28;20333;-86
2023/10/05 12:17:45;;;;;;;;;;;;;;;34.47;18.72;98673.75;5006181;28;19933;-86
2023/10/05 12:20:14;;;;;;;;;;;;;;;34.41;18.64;98663.53;5004576;28;20348;-87
2023/10/05 12:22:41;;;;;;;;;;;;;;;34.01;18.91;98662.00;5007041;28;20337;-87
2023/10/05 12:25:08;;;;;;;;;;;;;;;34.32;19.34;98666.50;5010521;28;19928;-86
2023/10/05 12:27:35;;;;;;;;;;;;;;;34.45;19.33;98662.06;5011557;28;19952;-87
2023/10/05 12:30:10;;;;;;;;;;;;;;;34.72;18.97;98661.00;5009388;28;19926;-87
2023/10/05 12:32:39;;;;;;;;;;;;;;;34.78;19.20;98661.09;4997626;28;19975;-86
2023/10/05 12:35:07;;;;;;;;;;;;;;;34.78;18.86;98661.88;5003919;28;20360;-87
2023/10/05 12:37:33;;;;;;;;;;;;;;;34.97;18.65;98651.81;5006714;28;19922;-87
2023/10/05 12:40:17;;;;;;;;;;;;;;;34.62;19.36;98662.38;5008432;28;19926;-87
2023/10/05 12:42:51;;;;;;;;;;;;;;;34.87;19.33;98644.63;5013385;28;19922;-88
2023/10/05 12:45:24;;;;;;;;;;;;;;;34.57;19.01;98648.81;5006793;28;19973;-87
2023/10/05 12:47:54;;;;;;;;;;;;;;;34.35;19.68;98654.13;5015291;28;19925;-86
2023/10/05 12:50:25;;;;;;;;;;;;;;;34.35;19.63;98646.34;5012459;28;20036;-87
2023/10/05 12:52:56;;;;;;;;;;;;;;;34.41;19.47;98646.44;4997407;28;19925;-86
2023/10/05 12:55:22;;;;;;;;;;;;;;;34.40;19.44;98651.34;5003404;28;19928;-87
2023/10/05 12:57:50;;;;;;;;;;;;;;;34.23;20.03;98655.97;5003905;28;20400;-87
2023/10/05 13:00:20;;;;;;;;;;;;;;;33.69;20.75;98660.06;5009027;28;19921;-87
2023/10/05 13:02:47;;;;;;;;;;;;;;;33.35;20.54;98655.66;5008300;28;19921;-87
2023/10/05 13:05:18;;;;;;;;;;;;;;;33.32;21.47;98653.81;5005058;28;20008;-87
2023/10/05 13:07:44;;;;;;;;;;;;;;;33.28;20.47;98643.88;5005032;28;20422;-87
2023/10/05 13:10:21;;;;;;;;;;;;;;;32.79;21.55;98643.47;5004349;28;19968;-86
2023/10/05 13:12:48;;;;;;;;;;;;;;;33.06;21.73;98651.91;5006030;28;20017;-88
2023/10/05 13:15:15;;;;;;;;;;;;;;;33.41;20.93;98644.41;5000442;28;20016;-89
2023/10/05 13:17:45;;;;;;;;;;;;;;;33.87;21.49;98644.88;5006439;28;20008;-87
2023/10/05 13:20:15;;;;;;;;;;;;;;;34.04;20.60;98646.03;5011664;28;19925;-89
2023/10/05 13:22:44;;;;;;;;;;;;;;;33.47;21.02;98644.53;5003335;28;19925;-90
2023/10/05 13:25:11;;;;;;;;;;;;;;;33.53;20.60;98645.47;5009176;28;19945;-89
2023/10/05 13:27:37;;;;;;;;;;;;;;;32.16;21.93;98642.34;5005974;28;19925;-89
2023/10/05 13:30:03;;;;;;;;;;;;;;;32.97;21.62;98658.41;5014812;28;20039;-89
2023/10/05 13:32:31;;;;;;;;;;;;;;;33.04;21.30;98648.75;5026566;28;19929;-89
2023/10/05 13:34:57;;;;;;;;;;;;;;;33.42;21.31;98649.63;5013893;28;19924;-87